Time;durP1;ratioP1;P1;durP2;ratioP2;P2;SDS_P1;SDS_P2;PMS_P1;PMS_P2;Temp;Humidity;BMP_temperature;BMP_pressure;BME280_temperature;BME280_humidity;BME280_pressure;Samples;Min_cycle;Max_cycle;Signal;HPM_P1;HPM_P2
2021/10/31 00:02:16;;;;;;;4.38;3.97;;;;;;;;;;5034362;28;20293;-47
2021/10/31 00:04:42;;;;;;;4.50;3.75;;;;;;;;;;5034880;28;20237;-47
2021/10/31 00:07:08;;;;;;;4.20;3.80;;;;;;;;;;5037597;28;20187;-47
2021/10/31 00:09:34;;;;;;;4.03;3.65;;;;;;;;;;5038691;28;20207;-47
2021/10/31 00:12:00;;;;;;;5.22;3.92;;;;;;;;;;5043045;28;20209;-47
2021/10/31 00:14:26;;;;;;;4.60;3.97;;;;;;;;;;5034632;28;20180;-47
2021/10/31 00:16:58;;;;;;;4.10;3.70;;;;;;;;;;5034928;28;20179;-47
2021/10/31 00:19:24;;;;;;;4.45;4.05;;;;;;;;;;5027037;28;20179;-47
2021/10/31 00:21:50;;;;;;;4.70;4.20;;;;;;;;;;5030337;28;20230;-47
2021/10/31 00:24:16;;;;;;;4.47;3.90;;;;;;;;;;5034319;28;20202;-47
2021/10/31 00:26:42;;;;;;;3.60;3.30;;;;;;;;;;5034556;28;20188;-46
2021/10/31 00:29:08;;;;;;;3.85;3.45;;;;;;;;;;5028750;28;20211;-47
2021/10/31 00:31:34;;;;;;;4.00;3.70;;;;;;;;;;5028223;28;20188;-47
2021/10/31 00:34:00;;;;;;;4.25;3.85;;;;;;;;;;5034039;28;20184;-47
2021/10/31 00:36:26;;;;;;;3.50;3.20;;;;;;;;;;5033300;28;20231;-47
2021/10/31 00:38:52;;;;;;;4.05;3.65;;;;;;;;;;5031462;28;20204;-47
2021/10/31 00:41:18;;;;;;;3.78;3.45;;;;;;;;;;5025742;28;20191;-47
2021/10/31 00:43:44;;;;;;;3.80;3.50;;;;;;;;;;5034067;28;20910;-47
2021/10/31 00:46:10;;;;;;;3.80;3.42;;;;;;;;;;5034188;28;20274;-46
2021/10/31 00:48:36;;;;;;;3.72;3.42;;;;;;;;;;5033322;28;20231;-46
2021/10/31 00:51:03;;;;;;;4.03;3.60;;;;;;;;;;5023492;28;20609;-46
2021/10/31 00:53:29;;;;;;;3.75;3.42;;;;;;;;;;5034226;28;20233;-47
2021/10/31 00:55:55;;;;;;;3.80;3.40;;;;;;;;;;5034106;28;20240;-46
2021/10/31 00:58:22;;;;;;;3.70;3.40;;;;;;;;;;5033874;28;20180;-47
2021/10/31 01:00:49;;;;;;;3.78;3.42;;;;;;;;;;5033184;28;20215;-47
2021/10/31 01:03:15;;;;;;;3.95;3.50;;;;;;;;;;5033986;28;20191;-47
2021/10/31 01:05:45;;;;;;;3.60;3.30;;;;;;;;;;5033747;28;20187;-47
2021/10/31 01:08:17;;;;;;;3.92;3.53;;;;;;;;;;5034620;28;20278;-47
2021/10/31 01:10:43;;;;;;;3.40;3.10;;;;;;;;;;5024358;28;20183;-47
2021/10/31 01:13:15;;;;;;;3.67;3.38;;;;;;;;;;5033401;28;20195;-47
2021/10/31 01:16:00;;;;;;;3.80;3.38;;;;;;;;;;5033915;28;20199;-47
2021/10/31 01:18:26;;;;;;;3.40;3.10;;;;;;;;;;5034409;28;20175;-47
2021/10/31 01:21:00;;;;;;;3.53;3.22;;;;;;;;;;5032839;28;20448;-46
2021/10/31 01:23:32;;;;;;;3.60;3.30;;;;;;;;;;5033582;28;20210;-47
2021/10/31 01:26:01;;;;;;;3.70;3.40;;;;;;;;;;5034096;28;20202;-47
2021/10/31 01:28:39;;;;;;;3.40;3.10;;;;;;;;;;5033895;28;20216;-47
2021/10/31 01:31:20;;;;;;;3.70;3.08;;;;;;;;;;5033399;28;20175;-47
2021/10/31 01:34:07;;;;;;;3.70;3.40;;;;;;;;;;5033549;28;20179;-47
2021/10/31 01:36:37;;;;;;;3.20;2.90;;;;;;;;;;5034103;28;20168;-47
2021/10/31 01:39:08;;;;;;;3.30;3.00;;;;;;;;;;5033400;28;20179;-47
2021/10/31 01:41:37;;;;;;;3.20;3.00;;;;;;;;;;5034047;28;20198;-47
2021/10/31 01:44:07;;;;;;;3.28;2.97;;;;;;;;;;5033653;28;20254;-47
2021/10/31 01:46:38;;;;;;;3.50;3.20;;;;;;;;;;5033170;28;20536;-47
2021/10/31 01:49:22;;;;;;;3.22;2.92;;;;;;;;;;5025229;28;20203;-47
2021/10/31 01:51:58;;;;;;;3.33;3.03;;;;;;;;;;5033874;28;20188;-47
2021/10/31 01:54:34;;;;;;;4.28;3.30;;;;;;;;;;5013517;28;20168;-47
2021/10/31 01:57:02;;;;;;;3.50;3.20;;;;;;;;;;5031459;28;20172;-47
2021/10/31 01:59:34;;;;;;;3.00;2.80;;;;;;;;;;5033121;28;20180;-47
2021/10/31 02:02:20;;;;;;;3.58;3.28;;;;;;;;;;5035068;28;20192;-47
2021/10/31 02:04:47;;;;;;;3.38;3.08;;;;;;;;;;5036886;28;20570;-47
2021/10/31 02:07:13;;;;;;;3.28;2.97;;;;;;;;;;5037630;28;20184;-47
2021/10/31 02:09:41;;;;;;;3.15;2.85;;;;;;;;;;5036640;28;20286;-47
2021/10/31 02:12:12;;;;;;;3.10;2.90;;;;;;;;;;5036972;28;20633;-47
2021/10/31 02:14:38;;;;;;;3.17;2.88;;;;;;;;;;5036783;28;20199;-47
2021/10/31 02:17:04;;;;;;;3.30;3.00;;;;;;;;;;5037268;28;20180;-47
2021/10/31 02:19:36;;;;;;;3.33;2.95;;;;;;;;;;5036443;28;20198;-47
2021/10/31 02:22:03;;;;;;;3.42;3.13;;;;;;;;;;5036193;28;20184;-47
2021/10/31 02:24:30;;;;;;;4.95;3.22;;;;;;;;;;5036647;28;20706;-47
2021/10/31 02:26:56;;;;;;;3.33;3.03;;;;;;;;;;5036743;28;20233;-47
2021/10/31 02:29:22;;;;;;;3.20;2.83;;;;;;;;;;5037197;28;20242;-47
2021/10/31 02:31:48;;;;;;;2.97;2.75;;;;;;;;;;5035679;28;20211;-47
2021/10/31 02:34:14;;;;;;;2.90;2.70;;;;;;;;;;5036661;28;20781;-47
2021/10/31 02:36:40;;;;;;;4.97;3.20;;;;;;;;;;5037089;28;20183;-47
2021/10/31 02:39:07;;;;;;;3.35;3.05;;;;;;;;;;5036780;28;20314;-47
2021/10/31 02:41:34;;;;;;;3.30;3.00;;;;;;;;;;5036433;28;20229;-47
2021/10/31 02:44:00;;;;;;;2.67;2.47;;;;;;;;;;5036935;28;20418;-47
2021/10/31 02:46:31;;;;;;;4.53;2.90;;;;;;;;;;5035718;28;20457;-47
2021/10/31 02:48:57;;;;;;;3.45;3.15;;;;;;;;;;5036248;28;20207;-47
2021/10/31 02:51:29;;;;;;;2.75;2.55;;;;;;;;;;5036715;28;20625;-47
2021/10/31 02:54:05;;;;;;;3.25;2.92;;;;;;;;;;5036656;28;20253;-47
2021/10/31 02:56:35;;;;;;;2.90;2.60;;;;;;;;;;5036725;28;20198;-47
2021/10/31 02:59:05;;;;;;;2.95;2.65;;;;;;;;;;5036668;28;20171;-47
2021/10/31 03:01:32;;;;;;;3.75;2.78;;;;;;;;;;5036193;28;20296;-46
2021/10/31 03:03:59;;;;;;;3.08;2.63;;;;;;;;;;5019034;28;20196;-46
2021/10/31 03:06:25;;;;;;;2.78;2.58;;;;;;;;;;5033344;28;20241;-47
2021/10/31 03:08:51;;;;;;;4.22;2.80;;;;;;;;;;5036170;28;20210;-47
2021/10/31 03:11:17;;;;;;;2.60;2.40;;;;;;;;;;5035928;28;20188;-47
2021/10/31 03:13:43;;;;;;;2.25;2.13;;;;;;;;;;5035758;28;20215;-47
2021/10/31 03:16:09;;;;;;;2.90;2.45;;;;;;;;;;5036248;28;20485;-46
2021/10/31 03:18:36;;;;;;;3.25;2.95;;;;;;;;;;5034664;28;20191;-47
2021/10/31 03:21:02;;;;;;;2.92;2.63;;;;;;;;;;5025796;28;20203;-47
2021/10/31 03:23:29;;;;;;;2.80;2.60;;;;;;;;;;5038209;28;20218;-47
2021/10/31 03:25:56;;;;;;;2.80;2.60;;;;;;;;;;5035945;28;20172;-47
2021/10/31 03:28:22;;;;;;;2.88;2.65;;;;;;;;;;5036077;28;20496;-46
2021/10/31 03:30:48;;;;;;;2.90;2.60;;;;;;;;;;5035513;28;20251;-47
2021/10/31 03:33:16;;;;;;;2.88;2.67;;;;;;;;;;5035500;28;20218;-47
2021/10/31 03:35:42;;;;;;;2.90;2.70;;;;;;;;;;5034348;28;20176;-47
2021/10/31 03:38:08;;;;;;;2.90;2.70;;;;;;;;;;5036058;28;20433;-46
2021/10/31 03:40:34;;;;;;;2.50;2.30;;;;;;;;;;5021129;28;20869;-46
2021/10/31 03:43:00;;;;;;;3.10;2.80;;;;;;;;;;5035178;28;20267;-47
2021/10/31 03:45:26;;;;;;;2.80;2.50;;;;;;;;;;5035426;28;20264;-47
2021/10/31 03:47:52;;;;;;;2.65;2.45;;;;;;;;;;5031481;28;20238;-47
2021/10/31 03:50:23;;;;;;;2.80;2.60;;;;;;;;;;5034225;28;20257;-46
2021/10/31 03:52:49;;;;;;;2.65;2.45;;;;;;;;;;5024882;28;20191;-46
2021/10/31 03:55:16;;;;;;;2.88;2.67;;;;;;;;;;5019653;28;20176;-47
2021/10/31 03:57:42;;;;;;;2.80;2.60;;;;;;;;;;5035611;28;20164;-46
2021/10/31 04:00:13;;;;;;;3.13;2.88;;;;;;;;;;5033951;28;20237;-47
2021/10/31 04:02:39;;;;;;;3.38;2.80;;;;;;;;;;5017736;28;20239;-47
2021/10/31 04:05:08;;;;;;;3.00;2.30;;;;;;;;;;5030786;28;20172;-47
2021/10/31 04:07:35;;;;;;;3.85;2.33;;;;;;;;;;5035015;28;20183;-46
2021/10/31 04:10:01;;;;;;;4.68;2.70;;;;;;;;;;5034943;28;20549;-47
2021/10/31 04:12:28;;;;;;;2.60;2.40;;;;;;;;;;5035138;28;20284;-47
2021/10/31 04:14:54;;;;;;;3.00;2.70;;;;;;;;;;5034280;28;20551;-47
2021/10/31 04:17:21;;;;;;;3.10;2.63;;;;;;;;;;5034636;28;20180;-47
2021/10/31 04:19:47;;;;;;;2.75;2.55;;;;;;;;;;5034707;28;20262;-47
2021/10/31 04:22:13;;;;;;;3.05;2.65;;;;;;;;;;5034240;28;20270;-47
2021/10/31 04:24:39;;;;;;;2.65;2.45;;;;;;;;;;5033793;28;20191;-47
2021/10/31 04:27:05;;;;;;;2.55;2.35;;;;;;;;;;5034906;28;20446;-47
2021/10/31 04:29:31;;;;;;;3.30;2.58;;;;;;;;;;5034425;28;20249;-47
2021/10/31 04:31:57;;;;;;;3.80;2.53;;;;;;;;;;5034108;28;20187;-47
2021/10/31 04:34:23;;;;;;;3.00;2.60;;;;;;;;;;5025621;28;20582;-47
2021/10/31 04:36:50;;;;;;;2.70;2.50;;;;;;;;;;5030018;28;20191;-47
2021/10/31 04:39:17;;;;;;;2.80;2.50;;;;;;;;;;5034771;28;20176;-47
2021/10/31 04:41:45;;;;;;;2.63;2.42;;;;;;;;;;5034377;28;20190;-47
2021/10/31 04:44:11;;;;;;;2.70;2.50;;;;;;;;;;5034461;28;20168;-47
2021/10/31 04:46:37;;;;;;;3.30;2.58;;;;;;;;;;5028257;28;20188;-47
2021/10/31 04:49:03;;;;;;;3.15;2.40;;;;;;;;;;5034076;28;20593;-47
2021/10/31 04:51:29;;;;;;;3.15;2.30;;;;;;;;;;5034132;28;20414;-47
2021/10/31 04:53:55;;;;;;;2.80;2.60;;;;;;;;;;5034476;28;20183;-47
2021/10/31 04:56:23;;;;;;;3.00;2.70;;;;;;;;;;5034352;28;20187;-47
2021/10/31 04:58:52;;;;;;;3.30;2.33;;;;;;;;;;5034311;28;20543;-47
2021/10/31 05:01:19;;;;;;;2.55;2.35;;;;;;;;;;5030429;28;20218;-47
2021/10/31 05:03:45;;;;;;;2.58;2.38;;;;;;;;;;5033182;28;20500;-47
2021/10/31 05:06:12;;;;;;;2.65;2.45;;;;;;;;;;5034056;28;20440;-47
2021/10/31 05:08:38;;;;;;;2.47;2.28;;;;;;;;;;5034554;28;20203;-47
2021/10/31 05:11:05;;;;;;;2.63;2.42;;;;;;;;;;5034080;28;20180;-47
2021/10/31 05:13:31;;;;;;;2.83;2.63;;;;;;;;;;5033708;28;20172;-47
2021/10/31 05:15:58;;;;;;;3.47;2.42;;;;;;;;;;5033716;28;20179;-47
2021/10/31 05:18:24;;;;;;;2.50;2.30;;;;;;;;;;5021304;28;20271;-46
2021/10/31 05:20:50;;;;;;;2.75;2.45;;;;;;;;;;5031973;28;20318;-47
2021/10/31 05:23:16;;;;;;;2.78;2.58;;;;;;;;;;5033831;28;20172;-46
2021/10/31 05:25:42;;;;;;;2.78;2.58;;;;;;;;;;5033872;28;20547;-47
2021/10/31 05:28:08;;;;;;;2.42;2.22;;;;;;;;;;5034447;28;20333;-47
2021/10/31 05:30:34;;;;;;;4.65;2.67;;;;;;;;;;5033970;28;20179;-47
2021/10/31 05:33:00;;;;;;;4.65;2.58;;;;;;;;;;5033563;28;20251;-47
2021/10/31 05:35:26;;;;;;;5.78;2.78;;;;;;;;;;5020804;28;20179;-47
2021/10/31 05:37:59;;;;;;;3.38;3.05;;;;;;;;;;5037708;28;20255;-47
2021/10/31 05:40:27;;;;;;;6.93;3.38;;;;;;;;;;5036105;28;20177;-47
2021/10/31 05:42:53;;;;;;;6.57;3.50;;;;;;;;;;5037379;28;20172;-47
2021/10/31 05:45:19;;;;;;;4.43;3.33;;;;;;;;;;5036916;28;20191;-47
2021/10/31 05:47:46;;;;;;;4.60;3.80;;;;;;;;;;5037183;28;20183;-46
2021/10/31 05:50:13;;;;;;;4.70;3.70;;;;;;;;;;5037644;28;20194;-46
2021/10/31 05:52:40;;;;;;;6.03;4.00;;;;;;;;;;5037791;28;20180;-47
2021/10/31 05:55:07;;;;;;;5.15;3.78;;;;;;;;;;5036880;28;20180;-47
2021/10/31 05:57:33;;;;;;;4.97;4.15;;;;;;;;;;5037239;28;20221;-47
2021/10/31 06:00:02;;;;;;;6.38;4.13;;;;;;;;;;5037079;28;20485;-47
2021/10/31 06:02:28;;;;;;;4.90;3.88;;;;;;;;;;5037224;28;20234;-47
2021/10/31 06:04:56;;;;;;;4.97;4.47;;;;;;;;;;5037043;28;20605;-46
2021/10/31 06:07:22;;;;;;;6.03;4.28;;;;;;;;;;5037575;28;20180;-47
2021/10/31 06:09:48;;;;;;;5.35;4.38;;;;;;;;;;5037223;28;20461;-47
2021/10/31 06:12:14;;;;;;;10.45;7.97;;;;;;;;;;5029718;28;20579;-44
2021/10/31 06:14:41;;;;;;;10.25;8.48;;;;;;;;;;5029096;28;20725;-47
2021/10/31 06:17:07;;;;;;;10.32;9.00;;;;;;;;;;5037589;28;20180;-46
2021/10/31 06:19:34;;;;;;;11.00;9.30;;;;;;;;;;5037255;28;20175;-44
2021/10/31 06:22:00;;;;;;;12.07;8.80;;;;;;;;;;5037051;28;20264;-45
2021/10/31 06:24:26;;;;;;;11.57;9.43;;;;;;;;;;5037162;28;20176;-46
2021/10/31 06:26:52;;;;;;;10.93;8.13;;;;;;;;;;5034093;28;20609;-43
2021/10/31 06:29:18;;;;;;;10.15;9.10;;;;;;;;;;5036740;28;20521;-42
2021/10/31 06:31:44;;;;;;;10.93;8.43;;;;;;;;;;5033462;28;20195;-45
2021/10/31 06:34:11;;;;;;;12.18;10.13;;;;;;;;;;5018401;28;20263;-42
2021/10/31 06:36:37;;;;;;;10.02;8.57;;;;;;;;;;5029613;28;20250;-44
2021/10/31 06:39:03;;;;;;;11.55;9.38;;;;;;;;;;5036774;28;20560;-44
2021/10/31 06:41:29;;;;;;;10.18;8.70;;;;;;;;;;5038196;28;20194;-43
2021/10/31 06:43:55;;;;;;;11.25;9.35;;;;;;;;;;5056362;28;20262;-44
2021/10/31 06:46:21;;;;;;;12.82;10.38;;;;;;;;;;5038525;28;20207;-44
2021/10/31 06:48:47;;;;;;;12.60;9.40;;;;;;;;;;5036199;28;20222;-44
2021/10/31 06:51:13;;;;;;;15.65;10.38;;;;;;;;;;5033713;28;20183;-44
2021/10/31 06:53:39;;;;;;;12.68;9.68;;;;;;;;;;5024378;28;20187;-44
2021/10/31 06:56:05;;;;;;;15.48;10.15;;;;;;;;;;5032669;28;20180;-43
2021/10/31 06:58:31;;;;;;;15.35;10.65;;;;;;;;;;5036287;28;20182;-44
2021/10/31 07:00:57;;;;;;;13.02;9.25;;;;;;;;;;5035548;28;20210;-44
2021/10/31 07:03:23;;;;;;;14.88;8.85;;;;;;;;;;5025181;28;20192;-44
2021/10/31 07:05:49;;;;;;;15.07;9.23;;;;;;;;;;5026169;28;20554;-43
2021/10/31 07:08:15;;;;;;;15.77;10.20;;;;;;;;;;5036303;28;20213;-44
2021/10/31 07:10:41;;;;;;;11.40;9.10;;;;;;;;;;5040378;28;20179;-44
2021/10/31 07:13:07;;;;;;;12.93;9.65;;;;;;;;;;5030656;28;20211;-45
2021/10/31 07:15:33;;;;;;;12.02;9.90;;;;;;;;;;5033734;28;20547;-47
2021/10/31 07:18:00;;;;;;;10.85;9.75;;;;;;;;;;5035730;28;20179;-43
2021/10/31 07:20:26;;;;;;;10.93;8.23;;;;;;;;;;5026825;28;20180;-44
2021/10/31 07:22:55;;;;;;;11.27;7.38;;;;;;;;;;5035247;28;20598;-42
2021/10/31 07:25:23;;;;;;;8.77;7.50;;;;;;;;;;5035383;28;20180;-43
2021/10/31 07:27:49;;;;;;;9.00;7.37;;;;;;;;;;5020205;28;20263;-45
2021/10/31 07:30:16;;;;;;;10.93;7.30;;;;;;;;;;5027584;28;20172;-41
2021/10/31 07:32:42;;;;;;;10.82;7.28;;;;;;;;;;5027844;28;20687;-44
2021/10/31 07:35:10;;;;;;;9.95;6.95;;;;;;;;;;5020837;28;20183;-44
2021/10/31 07:37:36;;;;;;;9.15;6.60;;;;;;;;;;5035244;28;20593;-44
2021/10/31 07:40:05;;;;;;;14.50;7.15;;;;;;;;;;5034427;28;20180;-44
2021/10/31 07:42:31;;;;;;;12.43;7.10;;;;;;;;;;5027658;28;20238;-44
2021/10/31 07:44:58;;;;;;;11.00;6.15;;;;;;;;;;5030047;28;20460;-44
2021/10/31 07:47:24;;;;;;;8.05;6.45;;;;;;;;;;5035402;28;20275;-44
2021/10/31 07:49:53;;;;;;;10.65;6.20;;;;;;;;;;5034196;28;20200;-44
2021/10/31 07:52:19;;;;;;;12.68;6.57;;;;;;;;;;5035008;28;20176;-44
2021/10/31 07:54:47;;;;;;;17.73;6.90;;;;;;;;;;5033067;28;20191;-45
2021/10/31 07:57:13;;;;;;;11.75;7.10;;;;;;;;;;5022045;28;20197;-45
2021/10/31 07:59:40;;;;;;;15.27;7.03;;;;;;;;;;5033345;28;20191;-45
2021/10/31 08:02:06;;;;;;;10.50;7.10;;;;;;;;;;5029095;28;20245;-45
2021/10/31 08:04:33;;;;;;;11.82;6.78;;;;;;;;;;5021621;28;20397;-45
2021/10/31 08:06:59;;;;;;;14.90;7.78;;;;;;;;;;5034211;28;20179;-45
2021/10/31 08:09:25;;;;;;;10.90;7.05;;;;;;;;;;5032677;28;20219;-45
2021/10/31 08:11:51;;;;;;;8.05;6.88;;;;;;;;;;5032132;28;20187;-45
2021/10/31 08:14:17;;;;;;;7.50;6.18;;;;;;;;;;5026864;28;20191;-45
2021/10/31 08:16:44;;;;;;;9.18;6.57;;;;;;;;;;5034624;28;20172;-45
2021/10/31 08:19:10;;;;;;;9.02;7.07;;;;;;;;;;5034645;28;20182;-45
2021/10/31 08:21:36;;;;;;;11.07;7.00;;;;;;;;;;5030471;28;20173;-45
2021/10/31 08:24:02;;;;;;;7.63;6.50;;;;;;;;;;5034281;28;20188;-45
2021/10/31 08:26:29;;;;;;;9.02;6.70;;;;;;;;;;5032366;28;20214;-45
2021/10/31 08:28:55;;;;;;;10.98;7.18;;;;;;;;;;5015903;28;20227;-45
2021/10/31 08:31:27;;;;;;;11.95;6.80;;;;;;;;;;5030595;28;20177;-45
2021/10/31 08:33:58;;;;;;;13.65;7.13;;;;;;;;;;5019930;28;20168;-45
2021/10/31 08:36:26;;;;;;;14.70;7.57;;;;;;;;;;5034434;28;20172;-45
2021/10/31 08:38:52;;;;;;;12.40;7.00;;;;;;;;;;5027005;28;20187;-45
2021/10/31 08:41:19;;;;;;;18.67;7.03;;;;;;;;;;5030139;28;20211;-45
2021/10/31 08:43:45;;;;;;;11.65;7.05;;;;;;;;;;5034124;28;20265;-45
2021/10/31 08:46:11;;;;;;;10.48;6.43;;;;;;;;;;5020395;28;20196;-45
2021/10/31 08:48:39;;;;;;;13.93;6.38;;;;;;;;;;5022890;28;20222;-45
2021/10/31 08:51:05;;;;;;;9.18;6.10;;;;;;;;;;5021030;28;20179;-45
2021/10/31 08:53:31;;;;;;;8.10;5.82;;;;;;;;;;5032071;28;20203;-45
2021/10/31 08:55:58;;;;;;;10.77;6.40;;;;;;;;;;5027622;28;20538;-45
2021/10/31 08:58:24;;;;;;;10.52;6.65;;;;;;;;;;5029681;28;20266;-45
2021/10/31 09:00:50;;;;;;;9.68;6.53;;;;;;;;;;5028980;28;20180;-45
2021/10/31 09:03:16;;;;;;;7.03;5.57;;;;;;;;;;5028382;28;20203;-45
2021/10/31 09:05:42;;;;;;;7.40;6.13;;;;;;;;;;5026074;28;20183;-45
2021/10/31 09:08:09;;;;;;;10.73;6.45;;;;;;;;;;5033035;28;20191;-45
2021/10/31 09:10:36;;;;;;;13.88;6.10;;;;;;;;;;5030877;28;20444;-44
2021/10/31 09:13:02;;;;;;;9.82;5.97;;;;;;;;;;5032211;28;20253;-44
2021/10/31 09:15:28;;;;;;;11.27;6.15;;;;;;;;;;5039416;28;20444;-44
2021/10/31 09:17:55;;;;;;;14.20;5.70;;;;;;;;;;5039298;28;20171;-44
2021/10/31 09:20:25;;;;;;;7.68;6.18;;;;;;;;;;5041008;28;20182;-45
2021/10/31 09:22:51;;;;;;;12.18;6.10;;;;;;;;;;5031897;28;20203;-45
2021/10/31 09:25:17;;;;;;;11.95;6.00;;;;;;;;;;5038256;28;20175;-45
2021/10/31 09:27:43;;;;;;;10.18;6.18;;;;;;;;;;5036368;28;20175;-45
2021/10/31 09:30:09;;;;;;;10.32;6.13;;;;;;;;;;5040944;28;20609;-45
2021/10/31 09:32:38;;;;;;;6.63;5.32;;;;;;;;;;5026404;28;20559;-46
2021/10/31 09:35:04;;;;;;;8.10;5.65;;;;;;;;;;5036817;28;20168;-44
2021/10/31 09:37:30;;;;;;;9.95;5.85;;;;;;;;;;5042498;28;20211;-45
2021/10/31 09:39:59;;;;;;;8.43;5.10;;;;;;;;;;5033196;28;20177;-45
2021/10/31 09:42:26;;;;;;;8.32;5.70;;;;;;;;;;5023891;28;20552;-45
2021/10/31 09:44:52;;;;;;;6.45;5.25;;;;;;;;;;5035822;28;20181;-45
2021/10/31 09:47:22;;;;;;;10.13;5.45;;;;;;;;;;5034524;28;20207;-45
2021/10/31 09:49:49;;;;;;;8.20;5.38;;;;;;;;;;5040765;28;20711;-45
2021/10/31 09:52:15;;;;;;;8.75;5.93;;;;;;;;;;5032421;28;20641;-45
2021/10/31 09:54:41;;;;;;;7.85;5.60;;;;;;;;;;5037544;28;20199;-45
2021/10/31 09:57:07;;;;;;;6.88;4.93;;;;;;;;;;5029378;28;20215;-45
2021/10/31 09:59:38;;;;;;;5.93;5.25;;;;;;;;;;5039098;28;20222;-45
2021/10/31 10:04:51;;;;;;;6.47;5.05;;;;;;;;;;5038576;28;20582;-45
2021/10/31 10:07:18;;;;;;;7.45;4.80;;;;;;;;;;5030493;28;20582;-45
2021/10/31 10:09:54;;;;;;;8.15;4.70;;;;;;;;;;5029843;28;20501;-45
2021/10/31 10:12:20;;;;;;;7.05;4.85;;;;;;;;;;5042641;28;20186;-45
2021/10/31 10:15:05;;;;;;;5.82;5.10;;;;;;;;;;5037355;28;20180;-44
2021/10/31 10:17:44;;;;;;;6.22;4.82;;;;;;;;;;5035954;28;20176;-44
2021/10/31 10:20:14;;;;;;;7.50;4.97;;;;;;;;;;5039553;28;21587;-44
2021/10/31 10:22:40;;;;;;;6.00;4.55;;;;;;;;;;5036237;28;20219;-44
2021/10/31 10:25:06;;;;;;;4.72;4.22;;;;;;;;;;5035138;28;20210;-44
2021/10/31 10:27:37;;;;;;;5.55;4.38;;;;;;;;;;5037228;28;20176;-44
2021/10/31 10:30:13;;;;;;;4.93;4.10;;;;;;;;;;5037616;28;20207;-44
2021/10/31 10:32:48;;;;;;;4.93;4.43;;;;;;;;;;5034240;28;20192;-44
2021/10/31 10:35:17;;;;;;;4.82;4.43;;;;;;;;;;5023908;28;20180;-44
2021/10/31 10:37:43;;;;;;;5.65;4.22;;;;;;;;;;5034230;28;20176;-44
2021/10/31 10:40:11;;;;;;;6.07;4.30;;;;;;;;;;5035360;28;20172;-44
2021/10/31 10:42:44;;;;;;;4.35;3.95;;;;;;;;;;5031705;28;20215;-44
2021/10/31 10:45:11;;;;;;;4.57;4.10;;;;;;;;;;5036639;28;20246;-44
2021/10/31 10:47:42;;;;;;;4.90;4.22;;;;;;;;;;5033009;28;20198;-44
2021/10/31 10:50:14;;;;;;;5.00;3.85;;;;;;;;;;5034029;28;20610;-44
2021/10/31 10:52:42;;;;;;;5.45;3.90;;;;;;;;;;5035427;28;20180;-44
2021/10/31 10:55:16;;;;;;;4.60;4.00;;;;;;;;;;5033532;28;20208;-44
2021/10/31 10:57:44;;;;;;;4.45;4.05;;;;;;;;;;5034514;28;20560;-44
2021/10/31 11:00:12;;;;;;;4.32;3.92;;;;;;;;;;5028264;28;20184;-44
2021/10/31 11:02:38;;;;;;;4.57;4.18;;;;;;;;;;5028287;28;20251;-44
2021/10/31 11:05:06;;;;;;;4.63;4.10;;;;;;;;;;5025857;28;20179;-45
2021/10/31 11:07:33;;;;;;;4.07;3.67;;;;;;;;;;5027489;28;20587;-44
2021/10/31 11:10:00;;;;;;;4.38;3.95;;;;;;;;;;5029475;28;20239;-44
2021/10/31 11:12:32;;;;;;;5.38;3.78;;;;;;;;;;5025804;28;20191;-44
2021/10/31 11:15:03;;;;;;;4.55;3.72;;;;;;;;;;5029202;28;20190;-44
2021/10/31 11:17:30;;;;;;;4.88;3.70;;;;;;;;;;5022211;28;20180;-44
2021/10/31 11:19:57;;;;;;;4.10;3.65;;;;;;;;;;5018585;28;20176;-44
2021/10/31 11:22:24;;;;;;;4.78;3.80;;;;;;;;;;5033309;28;20179;-44
2021/10/31 11:24:51;;;;;;;3.88;3.45;;;;;;;;;;5034130;28;20623;-44
2021/10/31 11:27:18;;;;;;;4.18;3.78;;;;;;;;;;5034297;28;20266;-45
2021/10/31 11:29:46;;;;;;;3.85;3.47;;;;;;;;;;5035708;28;20444;-44
2021/10/31 11:32:13;;;;;;;3.83;3.53;;;;;;;;;;5035084;28;20187;-44
2021/10/31 11:34:41;;;;;;;3.67;3.38;;;;;;;;;;5032785;28;20183;-44
2021/10/31 11:37:08;;;;;;;3.70;3.40;;;;;;;;;;5035501;28;20451;-45
2021/10/31 11:39:34;;;;;;;4.10;3.70;;;;;;;;;;5035115;28;20606;-45
2021/10/31 11:42:00;;;;;;;4.90;3.67;;;;;;;;;;5032854;28;20183;-44
2021/10/31 11:44:29;;;;;;;3.78;3.47;;;;;;;;;;5035271;28;20266;-44
2021/10/31 11:46:57;;;;;;;4.20;3.45;;;;;;;;;;5027656;28;20590;-44
2021/10/31 11:49:23;;;;;;;3.95;3.47;;;;;;;;;;5035759;28;20235;-44
2021/10/31 11:51:50;;;;;;;3.50;3.20;;;;;;;;;;5026216;28;20176;-44
2021/10/31 11:54:20;;;;;;;3.90;3.53;;;;;;;;;;5015228;28;20181;-44
2021/10/31 11:56:54;;;;;;;5.50;3.40;;;;;;;;;;5025070;28;20180;-44
2021/10/31 11:59:21;;;;;;;4.88;3.40;;;;;;;;;;5021955;28;20208;-44
2021/10/31 12:01:51;;;;;;;5.88;3.67;;;;;;;;;;5027846;28;20190;-44
2021/10/31 12:04:22;;;;;;;3.60;3.30;;;;;;;;;;5030627;28;20523;-44
2021/10/31 12:06:49;;;;;;;3.67;3.35;;;;;;;;;;5036045;28;20191;-44
2021/10/31 12:09:25;;;;;;;4.32;3.50;;;;;;;;;;5035208;28;20204;-44
2021/10/31 12:11:51;;;;;;;4.38;3.30;;;;;;;;;;5032289;28;20282;-45
2021/10/31 12:14:37;;;;;;;4.07;2.85;;;;;;;;;;5022082;28;20204;-45
2021/10/31 12:17:03;;;;;;;3.80;3.40;;;;;;;;;;5017570;28;20263;-45
2021/10/31 12:19:42;;;;;;;3.80;3.28;;;;;;;;;;5032926;28;20279;-44
2021/10/31 12:22:12;;;;;;;3.65;3.20;;;;;;;;;;5033503;28;20187;-44
2021/10/31 12:24:49;;;;;;;5.15;3.50;;;;;;;;;;5033868;28;20191;-44
2021/10/31 12:27:35;;;;;;;3.50;3.20;;;;;;;;;;5031116;28;20199;-44
2021/10/31 12:30:14;;;;;;;3.17;2.88;;;;;;;;;;5033587;28;20231;-45
2021/10/31 12:32:43;;;;;;;3.42;3.13;;;;;;;;;;5026962;28;20215;-45
2021/10/31 12:35:28;;;;;;;3.40;3.10;;;;;;;;;;5034010;28;20520;-44
2021/10/31 12:37:54;;;;;;;3.25;2.63;;;;;;;;;;5015051;28;20259;-44
2021/10/31 12:40:21;;;;;;;3.50;3.20;;;;;;;;;;5020001;28;20570;-44
2021/10/31 12:42:49;;;;;;;4.15;3.08;;;;;;;;;;5014884;28;20716;-44
2021/10/31 12:45:16;;;;;;;3.58;3.28;;;;;;;;;;5027656;28;20187;-44
2021/10/31 12:47:53;;;;;;;5.88;3.17;;;;;;;;;;5033848;28;20481;-45
2021/10/31 12:50:20;;;;;;;3.42;3.13;;;;;;;;;;5034005;28;20199;-44
2021/10/31 12:52:55;;;;;;;3.22;2.92;;;;;;;;;;5018868;28;20793;-45
2021/10/31 12:55:23;;;;;;;3.15;2.95;;;;;;;;;;5021559;28;20229;-45
2021/10/31 12:57:56;;;;;;;4.40;2.88;;;;;;;;;;5027564;28;20199;-44
2021/10/31 13:00:23;;;;;;;3.38;3.00;;;;;;;;;;5023155;28;20516;-44
2021/10/31 13:02:51;;;;;;;3.55;2.95;;;;;;;;;;5025194;28;20555;-45
2021/10/31 13:05:27;;;;;;;3.58;2.97;;;;;;;;;;5033705;28;20266;-45
2021/10/31 13:07:54;;;;;;;2.65;2.45;;;;;;;;;;5039563;28;20176;-45
2021/10/31 13:10:30;;;;;;;3.13;2.83;;;;;;;;;;5036481;28;20198;-45
2021/10/31 13:13:01;;;;;;;3.25;2.95;;;;;;;;;;5014412;28;20244;-44
2021/10/31 13:15:27;;;;;;;3.42;3.00;;;;;;;;;;5028404;28;20203;-44
2021/10/31 13:17:55;;;;;;;3.65;3.28;;;;;;;;;;5024677;28;20171;-44
2021/10/31 13:20:26;;;;;;;3.55;2.97;;;;;;;;;;5033795;28;20186;-44
2021/10/31 13:22:58;;;;;;;3.17;2.85;;;;;;;;;;5033676;28;20188;-44
2021/10/31 13:25:26;;;;;;;2.90;2.70;;;;;;;;;;5033651;28;20176;-44
2021/10/31 13:27:54;;;;;;;3.22;2.90;;;;;;;;;;5033668;28;20195;-44
2021/10/31 13:30:20;;;;;;;3.10;2.80;;;;;;;;;;5034119;28;20192;-44
2021/10/31 13:32:49;;;;;;;2.75;2.47;;;;;;;;;;5025074;28;20179;-44
2021/10/31 13:35:16;;;;;;;2.70;2.50;;;;;;;;;;5032907;28;20179;-44
2021/10/31 13:37:42;;;;;;;2.50;2.30;;;;;;;;;;5034210;28;20180;-44
2021/10/31 13:40:10;;;;;;;3.28;2.65;;;;;;;;;;5030978;28;20701;-44
2021/10/31 13:42:37;;;;;;;2.83;2.63;;;;;;;;;;5023642;28;20226;-44
2021/10/31 13:45:24;;;;;;;3.80;2.85;;;;;;;;;;5030880;28;20184;-44
2021/10/31 13:47:57;;;;;;;2.83;2.63;;;;;;;;;;5031701;28;20199;-46
2021/10/31 13:50:26;;;;;;;3.75;3.05;;;;;;;;;;5053147;28;20613;-45
2021/10/31 13:52:56;;;;;;;2.63;2.40;;;;;;;;;;5033140;28;20168;-44
2021/10/31 13:55:23;;;;;;;3.03;2.75;;;;;;;;;;5033943;28;20564;-44
2021/10/31 13:57:49;;;;;;;2.92;2.60;;;;;;;;;;5028882;28;20443;-45
2021/10/31 14:00:18;;;;;;;2.67;2.38;;;;;;;;;;5036566;28;20551;-45
2021/10/31 14:02:44;;;;;;;2.88;2.67;;;;;;;;;;5037522;28;20191;-45
2021/10/31 14:05:12;;;;;;;2.60;2.40;;;;;;;;;;5035651;28;20203;-45
2021/10/31 14:07:42;;;;;;;2.75;2.50;;;;;;;;;;5037544;28;20183;-45
2021/10/31 14:10:09;;;;;;;2.78;2.53;;;;;;;;;;5036826;28;20200;-45
2021/10/31 14:12:35;;;;;;;2.47;2.28;;;;;;;;;;5036179;28;20251;-45
2021/10/31 14:15:06;;;;;;;2.38;2.17;;;;;;;;;;5035759;28;20178;-45
2021/10/31 14:17:32;;;;;;;3.45;2.70;;;;;;;;;;5036958;28;20164;-45
2021/10/31 14:19:59;;;;;;;5.18;2.63;;;;;;;;;;5036669;28;20179;-45
2021/10/31 14:22:30;;;;;;;3.28;2.97;;;;;;;;;;5027100;28;20571;-44
2021/10/31 14:25:00;;;;;;;5.45;3.30;;;;;;;;;;5036631;28;20259;-44
2021/10/31 14:27:28;;;;;;;9.95;3.03;;;;;;;;;;5033046;28;20657;-44
2021/10/31 14:29:54;;;;;;;7.57;4.15;;;;;;;;;;5030843;28;20202;-45
2021/10/31 14:32:20;;;;;;;8.10;4.07;;;;;;;;;;5027144;28;20176;-49
2021/10/31 14:34:56;;;;;;;4.97;4.20;;;;;;;;;;5019802;28;20173;-48
2021/10/31 14:37:23;;;;;;;12.30;5.68;;;;;;;;;;5026795;28;20173;-48
2021/10/31 14:39:49;;;;;;;6.30;5.13;;;;;;;;;;5030467;28;20180;-47
2021/10/31 14:42:23;;;;;;;8.60;5.35;;;;;;;;;;5035898;28;20420;-47
2021/10/31 14:44:50;;;;;;;9.15;5.63;;;;;;;;;;5035779;28;20195;-47
2021/10/31 14:47:16;;;;;;;8.60;5.50;;;;;;;;;;5035417;28;20508;-47
2021/10/31 14:49:42;;;;;;;7.35;5.78;;;;;;;;;;5036715;28;20203;-47